Askam-in-Furness, United Kingdom
Current Conditions -  °F | °C
As of 7:20 PM on Monday 20 Oct 2014 (Local Time) from EGNS Reporting Station
Scattered Clouds Scattered Clouds  
Wind Chill: 57°   Ceiling: Unl
Heat Index: 57°   Visibility: 6mi
Dew Point: 52°   Wind: 21mph
Humidity: 82%   Direction: 210°SSW
Pressure: 29.71"   Gusts: NA
Location:  54.18°N, 3.22°W
Report Text: EGNS 201820Z 21018KT 9999 FEW014 SCT026 14/11 Q1006 NOSIG
Loading
Personal Weather Stations






























Interactive Weather Map
Tropical Storm Tracking
New forecast layout! Learn more

10-Day Weather Forecast

Advertisements
Track Severe Weather on mobile